Terminal Aerodrome Forecast
Issued by NWS St Louis, MO

Current Version | Previous Version | Text Only | Print | Product List | Glossary On
Versions: 1 2 3 4 5 6 7 8 9 10 11 12 13 14 15 16 17
694
FTUS43 KLSX 260520
TAFCOU
TAF
KCOU 260520Z 2606/2706 17008KT P6SM BKN060
     FM260900 16008KT P6SM VCTS BKN035CB
     FM261300 15008KT P6SM BKN050
     FM262000 15009KT P6SM SCT120
     FM270400 15009KT P6SM -SHRA BKN090=

USA.gov is the U.S. government's official web portal to all federal, state and local government web resources and services.